sensor_id;sensor_type;location;lat;lon;timestamp;temperature;humidity
2300;DHT22;1158;48.750;9.078;2023-02-04T00:01:28;6.10;99.90
2300;DHT22;1158;48.750;9.078;2023-02-04T00:03:55;6.10;99.90
2300;DHT22;1158;48.750;9.078;2023-02-04T00:06:21;6.20;99.90
2300;DHT22;1158;48.750;9.078;2023-02-04T00:08:48;6.10;99.90
2300;DHT22;1158;48.750;9.078;2023-02-04T00:11:17;6.10;99.90
2300;DHT22;1158;48.750;9.078;2023-02-04T00:13:44;6.10;99.90
2300;DHT22;1158;48.750;9.078;2023-02-04T00:16:11;6.10;99.90
2300;DHT22;1158;48.750;9.078;2023-02-04T00:18:38;6.10;99.90
2300;DHT22;1158;48.750;9.078;2023-02-04T00:21:05;6.10;99.90
2300;DHT22;1158;48.750;9.078;2023-02-04T00:23:32;6.10;99.90
2300;DHT22;1158;48.750;9.078;2023-02-04T00:25:58;6.10;99.90
2300;DHT22;1158;48.750;9.078;2023-02-04T00:28:26;6.00;99.90
2300;DHT22;1158;48.750;9.078;2023-02-04T00:30:53;6.00;99.90
2300;DHT22;1158;48.750;9.078;2023-02-04T00:33:20;6.10;99.90
2300;DHT22;1158;48.750;9.078;2023-02-04T00:35:47;6.00;99.90
2300;DHT22;1158;48.750;9.078;2023-02-04T00:38:14;6.10;99.90
2300;DHT22;1158;48.750;9.078;2023-02-04T00:40:40;6.00;99.90
2300;DHT22;1158;48.750;9.078;2023-02-04T00:43:07;6.00;99.90
2300;DHT22;1158;48.750;9.078;2023-02-04T00:45:35;6.10;99.90
2300;DHT22;1158;48.750;9.078;2023-02-04T00:48:02;6.10;99.90
2300;DHT22;1158;48.750;9.078;2023-02-04T00:50:29;6.10;99.90
2300;DHT22;1158;48.750;9.078;2023-02-04T00:52:56;6.10;99.90
2300;DHT22;1158;48.750;9.078;2023-02-04T00:55:26;6.10;99.90
2300;DHT22;1158;48.750;9.078;2023-02-04T00:57:53;6.10;99.90
2300;DHT22;1158;48.750;9.078;2023-02-04T01:00:20;6.10;99.90
2300;DHT22;1158;48.750;9.078;2023-02-04T01:02:48;6.10;99.90
2300;DHT22;1158;48.750;9.078;2023-02-04T01:05:14;6.10;99.90
2300;DHT22;1158;48.750;9.078;2023-02-04T01:07:41;6.10;99.90
2300;DHT22;1158;48.750;9.078;2023-02-04T01:10:09;6.10;99.90
2300;DHT22;1158;48.750;9.078;2023-02-04T01:12:36;6.10;99.90
2300;DHT22;1158;48.750;9.078;2023-02-04T01:15:04;6.10;99.90
2300;DHT22;1158;48.750;9.078;2023-02-04T01:17:31;6.10;99.90
2300;DHT22;1158;48.750;9.078;2023-02-04T01:19:59;6.10;99.90
2300;DHT22;1158;48.750;9.078;2023-02-04T01:22:25;6.10;99.90
2300;DHT22;1158;48.750;9.078;2023-02-04T01:24:52;6.10;99.90
2300;DHT22;1158;48.750;9.078;2023-02-04T01:27:19;6.10;99.90
2300;DHT22;1158;48.750;9.078;2023-02-04T01:29:45;6.10;99.90
2300;DHT22;1158;48.750;9.078;2023-02-04T01:32:12;6.00;99.90
2300;DHT22;1158;48.750;9.078;2023-02-04T01:34:39;6.00;99.90
2300;DHT22;1158;48.750;9.078;2023-02-04T01:37:07;6.00;99.90
2300;DHT22;1158;48.750;9.078;2023-02-04T01:39:34;6.00;99.90
2300;DHT22;1158;48.750;9.078;2023-02-04T01:42:01;6.00;99.90
2300;DHT22;1158;48.750;9.078;2023-02-04T01:44:29;5.90;99.90
2300;DHT22;1158;48.750;9.078;2023-02-04T01:46:56;5.90;99.90
2300;DHT22;1158;48.750;9.078;2023-02-04T01:49:23;5.90;99.90
2300;DHT22;1158;48.750;9.078;2023-02-04T01:51:50;5.80;99.90
2300;DHT22;1158;48.750;9.078;2023-02-04T01:54:18;5.80;99.90
2300;DHT22;1158;48.750;9.078;2023-02-04T01:56:46;5.70;99.90
2300;DHT22;1158;48.750;9.078;2023-02-04T01:59:17;5.60;99.90
2300;DHT22;1158;48.750;9.078;2023-02-04T02:01:45;5.50;99.90
2300;DHT22;1158;48.750;9.078;2023-02-04T02:04:14;5.40;99.90
2300;DHT22;1158;48.750;9.078;2023-02-04T02:06:43;5.30;99.90
2300;DHT22;1158;48.750;9.078;2023-02-04T02:09:10;5.30;99.90
2300;DHT22;1158;48.750;9.078;2023-02-04T02:11:39;5.20;99.90
2300;DHT22;1158;48.750;9.078;2023-02-04T02:14:05;5.20;99.90
2300;DHT22;1158;48.750;9.078;2023-02-04T02:16:32;5.10;99.90
2300;DHT22;1158;48.750;9.078;2023-02-04T02:18:59;5.10;99.90
2300;DHT22;1158;48.750;9.078;2023-02-04T02:21:31;5.10;99.90
2300;DHT22;1158;48.750;9.078;2023-02-04T02:24:25;5.10;99.90
2300;DHT22;1158;48.750;9.078;2023-02-04T02:26:53;5.10;99.90
2300;DHT22;1158;48.750;9.078;2023-02-04T02:29:20;5.10;99.90
2300;DHT22;1158;48.750;9.078;2023-02-04T02:31:47;5.10;99.90
2300;DHT22;1158;48.750;9.078;2023-02-04T02:34:15;5.10;99.90
2300;DHT22;1158;48.750;9.078;2023-02-04T02:36:41;5.10;99.90
2300;DHT22;1158;48.750;9.078;2023-02-04T02:39:10;5.10;99.90
2300;DHT22;1158;48.750;9.078;2023-02-04T02:41:37;5.10;99.90
2300;DHT22;1158;48.750;9.078;2023-02-04T02:44:04;5.10;99.90
2300;DHT22;1158;48.750;9.078;2023-02-04T02:46:31;5.10;99.90
2300;DHT22;1158;48.750;9.078;2023-02-04T02:48:58;5.00;99.90
2300;DHT22;1158;48.750;9.078;2023-02-04T02:51:25;5.00;99.90
2300;DHT22;1158;48.750;9.078;2023-02-04T02:53:52;4.90;99.90
2300;DHT22;1158;48.750;9.078;2023-02-04T02:56:20;4.90;99.90
2300;DHT22;1158;48.750;9.078;2023-02-04T02:58:47;4.90;99.90
2300;DHT22;1158;48.750;9.078;2023-02-04T03:01:14;4.90;99.90
2300;DHT22;1158;48.750;9.078;2023-02-04T03:03:43;4.90;99.90
2300;DHT22;1158;48.750;9.078;2023-02-04T03:06:13;4.90;99.90
2300;DHT22;1158;48.750;9.078;2023-02-04T03:08:42;4.90;99.90
2300;DHT22;1158;48.750;9.078;2023-02-04T03:11:09;5.00;99.90
2300;DHT22;1158;48.750;9.078;2023-02-04T03:13:37;5.00;99.90
2300;DHT22;1158;48.750;9.078;2023-02-04T03:16:06;5.00;99.90
2300;DHT22;1158;48.750;9.078;2023-02-04T03:18:34;5.00;99.90
2300;DHT22;1158;48.750;9.078;2023-02-04T03:21:02;5.00;99.90
2300;DHT22;1158;48.750;9.078;2023-02-04T03:23:31;5.00;99.90
2300;DHT22;1158;48.750;9.078;2023-02-04T03:25:58;5.00;99.90
2300;DHT22;1158;48.750;9.078;2023-02-04T03:28:25;5.00;99.90
2300;DHT22;1158;48.750;9.078;2023-02-04T03:30:53;5.00;99.90
2300;DHT22;1158;48.750;9.078;2023-02-04T03:33:21;5.00;99.90
2300;DHT22;1158;48.750;9.078;2023-02-04T03:35:48;5.00;99.90
2300;DHT22;1158;48.750;9.078;2023-02-04T03:38:16;5.00;99.90
2300;DHT22;1158;48.750;9.078;2023-02-04T03:40:43;5.00;99.90
2300;DHT22;1158;48.750;9.078;2023-02-04T03:43:10;4.90;99.90
2300;DHT22;1158;48.750;9.078;2023-02-04T03:45:36;4.90;99.90
2300;DHT22;1158;48.750;9.078;2023-02-04T03:48:05;4.90;99.90
2300;DHT22;1158;48.750;9.078;2023-02-04T03:50:31;4.90;99.90
2300;DHT22;1158;48.750;9.078;2023-02-04T03:52:58;4.80;99.90
2300;DHT22;1158;48.750;9.078;2023-02-04T03:55:25;4.80;99.90
2300;DHT22;1158;48.750;9.078;2023-02-04T03:57:52;4.80;99.90
2300;DHT22;1158;48.750;9.078;2023-02-04T04:00:19;4.80;99.90
2300;DHT22;1158;48.750;9.078;2023-02-04T04:02:46;4.80;99.90
2300;DHT22;1158;48.750;9.078;2023-02-04T04:05:14;4.80;99.90
2300;DHT22;1158;48.750;9.078;2023-02-04T04:07:41;4.80;99.90
2300;DHT22;1158;48.750;9.078;2023-02-04T04:10:08;4.80;99.90
2300;DHT22;1158;48.750;9.078;2023-02-04T04:12:35;4.80;99.90
2300;DHT22;1158;48.750;9.078;2023-02-04T04:15:02;4.80;99.90
2300;DHT22;1158;48.750;9.078;2023-02-04T04:17:29;4.80;99.90
2300;DHT22;1158;48.750;9.078;2023-02-04T04:19:55;4.80;99.90
2300;DHT22;1158;48.750;9.078;2023-02-04T04:22:23;4.80;99.90
2300;DHT22;1158;48.750;9.078;2023-02-04T04:24:50;4.80;99.90
2300;DHT22;1158;48.750;9.078;2023-02-04T04:27:17;4.80;99.90
2300;DHT22;1158;48.750;9.078;2023-02-04T04:29:43;4.80;99.90
2300;DHT22;1158;48.750;9.078;2023-02-04T04:32:10;4.80;99.90
2300;DHT22;1158;48.750;9.078;2023-02-04T04:34:37;4.80;99.90
2300;DHT22;1158;48.750;9.078;2023-02-04T04:37:04;4.80;99.90
2300;DHT22;1158;48.750;9.078;2023-02-04T04:39:32;4.80;99.90
2300;DHT22;1158;48.750;9.078;2023-02-04T04:41:58;4.80;99.90
2300;DHT22;1158;48.750;9.078;2023-02-04T04:44:25;4.80;99.90
2300;DHT22;1158;48.750;9.078;2023-02-04T04:46:52;4.80;99.90
2300;DHT22;1158;48.750;9.078;2023-02-04T04:49:19;4.80;99.90
2300;DHT22;1158;48.750;9.078;2023-02-04T04:51:46;4.80;99.90
2300;DHT22;1158;48.750;9.078;2023-02-04T04:54:13;4.80;99.90
2300;DHT22;1158;48.750;9.078;2023-02-04T04:56:41;4.80;99.90
2300;DHT22;1158;48.750;9.078;2023-02-04T04:59:08;4.80;99.90
2300;DHT22;1158;48.750;9.078;2023-02-04T05:01:34;4.80;99.90
2300;DHT22;1158;48.750;9.078;2023-02-04T05:04:01;4.80;99.90
2300;DHT22;1158;48.750;9.078;2023-02-04T05:06:28;4.80;99.90
2300;DHT22;1158;48.750;9.078;2023-02-04T05:08:55;4.70;99.90
2300;DHT22;1158;48.750;9.078;2023-02-04T05:11:22;4.70;99.90
2300;DHT22;1158;48.750;9.078;2023-02-04T05:13:50;4.70;99.90
2300;DHT22;1158;48.750;9.078;2023-02-04T05:16:16;4.70;99.90
2300;DHT22;1158;48.750;9.078;2023-02-04T05:18:43;4.70;99.90
2300;DHT22;1158;48.750;9.078;2023-02-04T05:21:10;4.70;99.90
2300;DHT22;1158;48.750;9.078;2023-02-04T05:23:37;4.70;99.90
2300;DHT22;1158;48.750;9.078;2023-02-04T05:26:04;4.70;99.90
2300;DHT22;1158;48.750;9.078;2023-02-04T05:28:30;4.70;99.90
2300;DHT22;1158;48.750;9.078;2023-02-04T05:30:58;4.60;99.90
2300;DHT22;1158;48.750;9.078;2023-02-04T05:33:25;4.60;99.90
2300;DHT22;1158;48.750;9.078;2023-02-04T05:35:52;4.60;99.90
2300;DHT22;1158;48.750;9.078;2023-02-04T05:38:19;4.60;99.90
2300;DHT22;1158;48.750;9.078;2023-02-04T05:40:45;4.60;99.90
2300;DHT22;1158;48.750;9.078;2023-02-04T05:43:12;4.60;99.90
2300;DHT22;1158;48.750;9.078;2023-02-04T05:45:39;4.60;99.90
2300;DHT22;1158;48.750;9.078;2023-02-04T05:48:07;4.50;99.90
2300;DHT22;1158;48.750;9.078;2023-02-04T05:50:33;4.60;99.90
2300;DHT22;1158;48.750;9.078;2023-02-04T05:53:00;4.60;99.90
2300;DHT22;1158;48.750;9.078;2023-02-04T05:55:27;4.60;99.90
2300;DHT22;1158;48.750;9.078;2023-02-04T05:57:54;4.60;99.90
2300;DHT22;1158;48.750;9.078;2023-02-04T06:00:21;4.60;99.90
2300;DHT22;1158;48.750;9.078;2023-02-04T06:02:48;4.60;99.90
2300;DHT22;1158;48.750;9.078;2023-02-04T06:05:16;4.60;99.90
2300;DHT22;1158;48.750;9.078;2023-02-04T06:07:43;4.50;99.90
2300;DHT22;1158;48.750;9.078;2023-02-04T06:10:10;4.50;99.90
2300;DHT22;1158;48.750;9.078;2023-02-04T06:12:36;4.50;99.90
2300;DHT22;1158;48.750;9.078;2023-02-04T06:15:04;4.50;99.90
2300;DHT22;1158;48.750;9.078;2023-02-04T06:17:31;4.40;99.90
2300;DHT22;1158;48.750;9.078;2023-02-04T06:19:57;4.40;99.90
2300;DHT22;1158;48.750;9.078;2023-02-04T06:22:25;4.40;99.90
2300;DHT22;1158;48.750;9.078;2023-02-04T06:24:52;4.30;99.90
2300;DHT22;1158;48.750;9.078;2023-02-04T06:27:19;4.30;99.90
2300;DHT22;1158;48.750;9.078;2023-02-04T06:29:47;4.30;99.90
2300;DHT22;1158;48.750;9.078;2023-02-04T06:32:14;4.30;99.90
2300;DHT22;1158;48.750;9.078;2023-02-04T06:34:41;4.30;99.90
2300;DHT22;1158;48.750;9.078;2023-02-04T06:37:08;4.30;99.90
2300;DHT22;1158;48.750;9.078;2023-02-04T06:39:36;4.20;99.90
2300;DHT22;1158;48.750;9.078;2023-02-04T06:42:03;4.30;99.90
2300;DHT22;1158;48.750;9.078;2023-02-04T06:44:30;4.30;99.90
2300;DHT22;1158;48.750;9.078;2023-02-04T06:46:56;4.20;99.90
2300;DHT22;1158;48.750;9.078;2023-02-04T06:49:23;4.30;99.90
2300;DHT22;1158;48.750;9.078;2023-02-04T06:51:50;4.20;99.90
2300;DHT22;1158;48.750;9.078;2023-02-04T06:54:17;4.20;99.90
2300;DHT22;1158;48.750;9.078;2023-02-04T06:56:45;4.20;99.90
2300;DHT22;1158;48.750;9.078;2023-02-04T06:59:12;4.20;99.90
2300;DHT22;1158;48.750;9.078;2023-02-04T07:01:39;4.20;99.90
2300;DHT22;1158;48.750;9.078;2023-02-04T07:04:05;4.20;99.90
2300;DHT22;1158;48.750;9.078;2023-02-04T07:06:32;4.20;99.90
2300;DHT22;1158;48.750;9.078;2023-02-04T07:08:59;4.20;99.90
2300;DHT22;1158;48.750;9.078;2023-02-04T07:11:25;4.20;99.90
2300;DHT22;1158;48.750;9.078;2023-02-04T07:13:53;4.20;99.90
2300;DHT22;1158;48.750;9.078;2023-02-04T07:16:20;4.20;99.90
2300;DHT22;1158;48.750;9.078;2023-02-04T07:18:47;4.20;99.90
2300;DHT22;1158;48.750;9.078;2023-02-04T07:21:14;4.20;99.90
2300;DHT22;1158;48.750;9.078;2023-02-04T07:23:40;4.20;99.90
2300;DHT22;1158;48.750;9.078;2023-02-04T07:26:07;4.20;99.90
2300;DHT22;1158;48.750;9.078;2023-02-04T07:28:34;4.20;99.90
2300;DHT22;1158;48.750;9.078;2023-02-04T07:31:02;4.20;99.90
2300;DHT22;1158;48.750;9.078;2023-02-04T07:33:29;4.30;99.90
2300;DHT22;1158;48.750;9.078;2023-02-04T07:35:56;4.30;99.90
2300;DHT22;1158;48.750;9.078;2023-02-04T07:38:23;4.30;99.90
2300;DHT22;1158;48.750;9.078;2023-02-04T07:40:49;4.20;99.90
2300;DHT22;1158;48.750;9.078;2023-02-04T07:43:16;4.30;99.90
2300;DHT22;1158;48.750;9.078;2023-02-04T07:45:43;4.20;99.90
2300;DHT22;1158;48.750;9.078;2023-02-04T07:48:11;4.20;99.90
2300;DHT22;1158;48.750;9.078;2023-02-04T07:50:38;4.20;99.90
2300;DHT22;1158;48.750;9.078;2023-02-04T07:53:04;4.20;99.90
2300;DHT22;1158;48.750;9.078;2023-02-04T07:55:31;4.20;99.90
2300;DHT22;1158;48.750;9.078;2023-02-04T07:57:58;4.20;99.90
2300;DHT22;1158;48.750;9.078;2023-02-04T08:00:25;4.20;99.90
2300;DHT22;1158;48.750;9.078;2023-02-04T08:02:51;4.20;99.90
2300;DHT22;1158;48.750;9.078;2023-02-04T08:05:19;4.20;99.90
2300;DHT22;1158;48.750;9.078;2023-02-04T08:07:46;4.30;99.90
2300;DHT22;1158;48.750;9.078;2023-02-04T08:10:13;4.30;99.90
2300;DHT22;1158;48.750;9.078;2023-02-04T08:12:40;4.30;99.90
2300;DHT22;1158;48.750;9.078;2023-02-04T08:15:07;4.30;99.90
2300;DHT22;1158;48.750;9.078;2023-02-04T08:17:34;4.40;99.90
2300;DHT22;1158;48.750;9.078;2023-02-04T08:20:02;4.40;99.90
2300;DHT22;1158;48.750;9.078;2023-02-04T08:22:30;4.50;99.90
2300;DHT22;1158;48.750;9.078;2023-02-04T08:24:58;4.60;99.90
2300;DHT22;1158;48.750;9.078;2023-02-04T08:27:25;4.70;99.90
2300;DHT22;1158;48.750;9.078;2023-02-04T08:29:51;4.70;99.90
2300;DHT22;1158;48.750;9.078;2023-02-04T08:32:19;4.90;99.90
2300;DHT22;1158;48.750;9.078;2023-02-04T08:34:46;4.90;99.90
2300;DHT22;1158;48.750;9.078;2023-02-04T08:37:13;4.80;99.90
2300;DHT22;1158;48.750;9.078;2023-02-04T08:39:41;5.00;99.90
2300;DHT22;1158;48.750;9.078;2023-02-04T08:42:10;5.10;99.90
2300;DHT22;1158;48.750;9.078;2023-02-04T08:44:37;5.50;99.90
2300;DHT22;1158;48.750;9.078;2023-02-04T08:47:04;5.70;99.90
2300;DHT22;1158;48.750;9.078;2023-02-04T08:49:31;6.10;99.90
2300;DHT22;1158;48.750;9.078;2023-02-04T08:51:58;6.90;99.90
2300;DHT22;1158;48.750;9.078;2023-02-04T08:54:27;7.60;99.90
2300;DHT22;1158;48.750;9.078;2023-02-04T08:56:55;8.60;99.90
2300;DHT22;1158;48.750;9.078;2023-02-04T08:59:22;9.50;99.90
2300;DHT22;1158;48.750;9.078;2023-02-04T09:01:50;11.20;99.90
2300;DHT22;1158;48.750;9.078;2023-02-04T09:04:18;13.00;99.90
2300;DHT22;1158;48.750;9.078;2023-02-04T09:06:46;13.10;99.90
2300;DHT22;1158;48.750;9.078;2023-02-04T09:09:13;12.60;99.90
2300;DHT22;1158;48.750;9.078;2023-02-04T09:11:40;13.60;99.90
2300;DHT22;1158;48.750;9.078;2023-02-04T09:14:08;13.50;99.90
2300;DHT22;1158;48.750;9.078;2023-02-04T09:16:34;12.60;99.90
2300;DHT22;1158;48.750;9.078;2023-02-04T09:19:01;12.40;99.90
2300;DHT22;1158;48.750;9.078;2023-02-04T09:21:28;11.50;99.90
2300;DHT22;1158;48.750;9.078;2023-02-04T09:23:55;10.20;99.90
2300;DHT22;1158;48.750;9.078;2023-02-04T09:26:22;8.90;99.90
2300;DHT22;1158;48.750;9.078;2023-02-04T09:28:49;8.40;99.90
2300;DHT22;1158;48.750;9.078;2023-02-04T09:31:17;8.00;99.90
2300;DHT22;1158;48.750;9.078;2023-02-04T09:33:44;7.80;99.90
2300;DHT22;1158;48.750;9.078;2023-02-04T09:36:11;7.50;99.90
2300;DHT22;1158;48.750;9.078;2023-02-04T09:38:38;7.40;99.90
2300;DHT22;1158;48.750;9.078;2023-02-04T09:41:06;7.40;99.90
2300;DHT22;1158;48.750;9.078;2023-02-04T09:43:37;7.40;99.90
2300;DHT22;1158;48.750;9.078;2023-02-04T09:46:06;7.80;99.90
2300;DHT22;1158;48.750;9.078;2023-02-04T09:48:34;8.20;99.90
2300;DHT22;1158;48.750;9.078;2023-02-04T09:51:04;8.00;99.90
2300;DHT22;1158;48.750;9.078;2023-02-04T09:53:32;8.30;99.90
2300;DHT22;1158;48.750;9.078;2023-02-04T09:56:01;8.60;99.90
2300;DHT22;1158;48.750;9.078;2023-02-04T09:58:32;9.60;99.90
2300;DHT22;1158;48.750;9.078;2023-02-04T10:01:08;10.70;99.90
2300;DHT22;1158;48.750;9.078;2023-02-04T10:03:39;11.00;99.90
2300;DHT22;1158;48.750;9.078;2023-02-04T10:06:11;11.40;99.90
2300;DHT22;1158;48.750;9.078;2023-02-04T10:08:39;12.80;99.90
2300;DHT22;1158;48.750;9.078;2023-02-04T10:11:06;13.60;99.90
2300;DHT22;1158;48.750;9.078;2023-02-04T10:13:36;13.80;99.90
2300;DHT22;1158;48.750;9.078;2023-02-04T10:16:10;13.50;99.90
2300;DHT22;1158;48.750;9.078;2023-02-04T10:18:40;11.60;99.90
2300;DHT22;1158;48.750;9.078;2023-02-04T10:21:13;10.10;99.90
2300;DHT22;1158;48.750;9.078;2023-02-04T10:23:41;8.80;99.90
2300;DHT22;1158;48.750;9.078;2023-02-04T10:26:10;8.40;99.90
2300;DHT22;1158;48.750;9.078;2023-02-04T10:28:37;7.80;99.90
2300;DHT22;1158;48.750;9.078;2023-02-04T10:31:05;7.60;99.90
2300;DHT22;1158;48.750;9.078;2023-02-04T10:33:33;7.30;99.90
2300;DHT22;1158;48.750;9.078;2023-02-04T10:36:04;7.30;99.90
2300;DHT22;1158;48.750;9.078;2023-02-04T10:38:31;7.20;99.90
2300;DHT22;1158;48.750;9.078;2023-02-04T10:41:01;7.10;99.90
2300;DHT22;1158;48.750;9.078;2023-02-04T10:43:28;7.20;99.90
2300;DHT22;1158;48.750;9.078;2023-02-04T10:45:56;7.30;99.90
2300;DHT22;1158;48.750;9.078;2023-02-04T10:48:24;7.20;99.90
2300;DHT22;1158;48.750;9.078;2023-02-04T10:50:51;7.20;99.90
2300;DHT22;1158;48.750;9.078;2023-02-04T10:53:21;7.00;99.90
2300;DHT22;1158;48.750;9.078;2023-02-04T10:56:12;6.90;99.90
2300;DHT22;1158;48.750;9.078;2023-02-04T10:58:40;6.90;99.90
2300;DHT22;1158;48.750;9.078;2023-02-04T11:01:09;6.40;99.90
2300;DHT22;1158;48.750;9.078;2023-02-04T11:03:37;7.10;99.90
2300;DHT22;1158;48.750;9.078;2023-02-04T11:06:10;7.10;99.90
2300;DHT22;1158;48.750;9.078;2023-02-04T11:08:39;7.20;99.90
2300;DHT22;1158;48.750;9.078;2023-02-04T11:11:07;7.30;99.90
2300;DHT22;1158;48.750;9.078;2023-02-04T11:13:42;7.30;99.90
2300;DHT22;1158;48.750;9.078;2023-02-04T11:16:12;7.50;99.90
2300;DHT22;1158;48.750;9.078;2023-02-04T11:18:51;7.40;99.90
2300;DHT22;1158;48.750;9.078;2023-02-04T11:21:23;7.40;99.90
2300;DHT22;1158;48.750;9.078;2023-02-04T11:24:02;7.40;99.90
2300;DHT22;1158;48.750;9.078;2023-02-04T11:26:33;7.10;99.90
2300;DHT22;1158;48.750;9.078;2023-02-04T11:29:21;6.90;99.90
2300;DHT22;1158;48.750;9.078;2023-02-04T11:32:00;7.20;99.90
2300;DHT22;1158;48.750;9.078;2023-02-04T11:34:30;6.80;99.90
2300;DHT22;1158;48.750;9.078;2023-02-04T11:37:15;6.90;99.90
2300;DHT22;1158;48.750;9.078;2023-02-04T11:39:46;6.90;99.90
2300;DHT22;1158;48.750;9.078;2023-02-04T11:42:20;6.80;99.90
2300;DHT22;1158;48.750;9.078;2023-02-04T11:44:51;6.80;99.90
2300;DHT22;1158;48.750;9.078;2023-02-04T11:47:19;6.90;99.90
2300;DHT22;1158;48.750;9.078;2023-02-04T11:49:53;7.00;99.90
2300;DHT22;1158;48.750;9.078;2023-02-04T11:52:20;7.00;99.90
2300;DHT22;1158;48.750;9.078;2023-02-04T11:54:56;7.00;99.90
2300;DHT22;1158;48.750;9.078;2023-02-04T11:57:25;7.20;99.90
2300;DHT22;1158;48.750;9.078;2023-02-04T11:59:52;7.10;99.90
2300;DHT22;1158;48.750;9.078;2023-02-04T12:02:22;7.10;99.90
2300;DHT22;1158;48.750;9.078;2023-02-04T12:04:55;7.20;99.90
2300;DHT22;1158;48.750;9.078;2023-02-04T12:07:26;6.90;99.90
2300;DHT22;1158;48.750;9.078;2023-02-04T12:09:55;7.10;99.90
2300;DHT22;1158;48.750;9.078;2023-02-04T12:12:24;7.50;99.90
2300;DHT22;1158;48.750;9.078;2023-02-04T12:14:57;7.60;99.90
2300;DHT22;1158;48.750;9.078;2023-02-04T12:17:23;7.90;99.90
2300;DHT22;1158;48.750;9.078;2023-02-04T12:19:50;8.20;99.90
2300;DHT22;1158;48.750;9.078;2023-02-04T12:22:17;8.30;99.90
2300;DHT22;1158;48.750;9.078;2023-02-04T12:24:44;8.50;99.90
2300;DHT22;1158;48.750;9.078;2023-02-04T12:27:12;8.70;99.90
2300;DHT22;1158;48.750;9.078;2023-02-04T12:29:38;9.00;99.90
2300;DHT22;1158;48.750;9.078;2023-02-04T12:32:05;9.10;99.90
2300;DHT22;1158;48.750;9.078;2023-02-04T12:34:32;9.20;99.90
2300;DHT22;1158;48.750;9.078;2023-02-04T12:36:59;9.30;99.90
2300;DHT22;1158;48.750;9.078;2023-02-04T12:39:25;9.40;99.90
2300;DHT22;1158;48.750;9.078;2023-02-04T12:41:53;9.40;99.90
2300;DHT22;1158;48.750;9.078;2023-02-04T12:44:21;9.20;99.90
2300;DHT22;1158;48.750;9.078;2023-02-04T12:46:47;9.30;99.90
2300;DHT22;1158;48.750;9.078;2023-02-04T12:49:14;9.20;99.90
2300;DHT22;1158;48.750;9.078;2023-02-04T12:51:41;8.60;99.90
2300;DHT22;1158;48.750;9.078;2023-02-04T12:54:07;8.70;99.90
2300;DHT22;1158;48.750;9.078;2023-02-04T12:56:34;9.10;99.90
2300;DHT22;1158;48.750;9.078;2023-02-04T12:59:01;9.60;99.90
2300;DHT22;1158;48.750;9.078;2023-02-04T13:01:29;9.90;99.90
2300;DHT22;1158;48.750;9.078;2023-02-04T13:03:56;10.10;99.90
2300;DHT22;1158;48.750;9.078;2023-02-04T13:06:23;9.90;99.90
2300;DHT22;1158;48.750;9.078;2023-02-04T13:08:50;9.70;99.90
2300;DHT22;1158;48.750;9.078;2023-02-04T13:11:17;10.20;99.90
2300;DHT22;1158;48.750;9.078;2023-02-04T13:13:43;10.30;99.90
2300;DHT22;1158;48.750;9.078;2023-02-04T13:16:10;9.90;99.90
2300;DHT22;1158;48.750;9.078;2023-02-04T13:18:38;9.80;99.90
2300;DHT22;1158;48.750;9.078;2023-02-04T13:21:05;9.80;99.90
2300;DHT22;1158;48.750;9.078;2023-02-04T13:23:31;9.60;99.90
2300;DHT22;1158;48.750;9.078;2023-02-04T13:25:58;8.80;99.90
2300;DHT22;1158;48.750;9.078;2023-02-04T13:28:25;8.80;99.90
2300;DHT22;1158;48.750;9.078;2023-02-04T13:30:51;8.60;99.90
2300;DHT22;1158;48.750;9.078;2023-02-04T13:33:18;8.20;99.90
2300;DHT22;1158;48.750;9.078;2023-02-04T13:35:46;8.10;99.90
2300;DHT22;1158;48.750;9.078;2023-02-04T13:38:13;8.10;99.90
2300;DHT22;1158;48.750;9.078;2023-02-04T13:40:40;7.90;99.90
2300;DHT22;1158;48.750;9.078;2023-02-04T13:43:06;7.50;99.90
2300;DHT22;1158;48.750;9.078;2023-02-04T13:45:33;7.80;99.90
2300;DHT22;1158;48.750;9.078;2023-02-04T13:48:00;7.90;99.90
2300;DHT22;1158;48.750;9.078;2023-02-04T13:50:27;8.10;99.90
2300;DHT22;1158;48.750;9.078;2023-02-04T13:52:55;8.20;99.90
2300;DHT22;1158;48.750;9.078;2023-02-04T13:55:21;8.20;99.90
2300;DHT22;1158;48.750;9.078;2023-02-04T13:57:48;8.20;99.90
2300;DHT22;1158;48.750;9.078;2023-02-04T14:00:15;8.60;99.90
2300;DHT22;1158;48.750;9.078;2023-02-04T14:02:42;9.30;99.90
2300;DHT22;1158;48.750;9.078;2023-02-04T14:05:09;10.40;99.90
2300;DHT22;1158;48.750;9.078;2023-02-04T14:07:36;11.20;99.90
2300;DHT22;1158;48.750;9.078;2023-02-04T14:10:05;11.80;99.90
2300;DHT22;1158;48.750;9.078;2023-02-04T14:12:31;11.60;99.90
2300;DHT22;1158;48.750;9.078;2023-02-04T14:14:58;12.10;99.90
2300;DHT22;1158;48.750;9.078;2023-02-04T14:17:25;11.80;99.90
2300;DHT22;1158;48.750;9.078;2023-02-04T14:19:52;11.90;99.90
2300;DHT22;1158;48.750;9.078;2023-02-04T14:22:18;12.70;99.90
2300;DHT22;1158;48.750;9.078;2023-02-04T14:24:45;13.00;99.90
2300;DHT22;1158;48.750;9.078;2023-02-04T14:27:13;13.80;99.90
2300;DHT22;1158;48.750;9.078;2023-02-04T14:29:40;14.10;99.50
2300;DHT22;1158;48.750;9.078;2023-02-04T14:32:06;13.70;99.80
2300;DHT22;1158;48.750;9.078;2023-02-04T14:34:33;13.70;99.90
2300;DHT22;1158;48.750;9.078;2023-02-04T14:37:00;14.40;99.90
2300;DHT22;1158;48.750;9.078;2023-02-04T14:39:27;14.50;99.20
2300;DHT22;1158;48.750;9.078;2023-02-04T14:41:54;14.30;99.00
2300;DHT22;1158;48.750;9.078;2023-02-04T14:44:22;13.80;98.50
2300;DHT22;1158;48.750;9.078;2023-02-04T14:46:49;13.50;98.80
2300;DHT22;1158;48.750;9.078;2023-02-04T14:49:16;13.70;99.00
2300;DHT22;1158;48.750;9.078;2023-02-04T14:51:43;14.20;98.70
2300;DHT22;1158;48.750;9.078;2023-02-04T14:54:09;14.40;97.90
2300;DHT22;1158;48.750;9.078;2023-02-04T14:56:36;13.40;98.30
2300;DHT22;1158;48.750;9.078;2023-02-04T14:59:03;11.60;99.30
2300;DHT22;1158;48.750;9.078;2023-02-04T15:01:31;11.10;99.90
2300;DHT22;1158;48.750;9.078;2023-02-04T15:03:58;10.50;99.90
2300;DHT22;1158;48.750;9.078;2023-02-04T15:06:25;9.80;99.90
2300;DHT22;1158;48.750;9.078;2023-02-04T15:08:51;9.40;99.90
2300;DHT22;1158;48.750;9.078;2023-02-04T15:11:18;9.10;99.90
2300;DHT22;1158;48.750;9.078;2023-02-04T15:13:45;8.80;99.90
2300;DHT22;1158;48.750;9.078;2023-02-04T15:16:12;8.40;99.90
2300;DHT22;1158;48.750;9.078;2023-02-04T15:18:40;8.30;99.90
2300;DHT22;1158;48.750;9.078;2023-02-04T15:21:07;8.20;99.90
2300;DHT22;1158;48.750;9.078;2023-02-04T15:23:34;8.20;99.90
2300;DHT22;1158;48.750;9.078;2023-02-04T15:26:01;8.90;99.90
2300;DHT22;1158;48.750;9.078;2023-02-04T15:28:28;9.20;99.90
2300;DHT22;1158;48.750;9.078;2023-02-04T15:30:55;9.70;99.90
2300;DHT22;1158;48.750;9.078;2023-02-04T15:33:22;9.90;99.90
2300;DHT22;1158;48.750;9.078;2023-02-04T15:35:50;9.30;99.90
2300;DHT22;1158;48.750;9.078;2023-02-04T15:38:17;8.80;99.90
2300;DHT22;1158;48.750;9.078;2023-02-04T15:40:44;8.30;99.90
2300;DHT22;1158;48.750;9.078;2023-02-04T15:43:10;7.90;99.90
2300;DHT22;1158;48.750;9.078;2023-02-04T15:45:37;7.60;99.90
2300;DHT22;1158;48.750;9.078;2023-02-04T15:48:06;7.60;99.90
2300;DHT22;1158;48.750;9.078;2023-02-04T15:50:33;7.40;99.90
2300;DHT22;1158;48.750;9.078;2023-02-04T15:53:01;7.30;99.90
2300;DHT22;1158;48.750;9.078;2023-02-04T15:55:28;7.10;99.90
2300;DHT22;1158;48.750;9.078;2023-02-04T15:57:55;7.00;99.90
2300;DHT22;1158;48.750;9.078;2023-02-04T16:00:22;6.90;99.90
2300;DHT22;1158;48.750;9.078;2023-02-04T16:02:49;6.60;99.90
2300;DHT22;1158;48.750;9.078;2023-02-04T16:05:16;6.40;99.90
2300;DHT22;1158;48.750;9.078;2023-02-04T16:07:43;6.20;99.90
2300;DHT22;1158;48.750;9.078;2023-02-04T16:10:11;5.90;99.90
2300;DHT22;1158;48.750;9.078;2023-02-04T16:12:38;5.80;99.90
2300;DHT22;1158;48.750;9.078;2023-02-04T16:15:05;5.70;99.90
2300;DHT22;1158;48.750;9.078;2023-02-04T16:17:32;5.50;99.90
2300;DHT22;1158;48.750;9.078;2023-02-04T16:19:59;5.30;99.90